createdAt,value
2023-03-24T00:01:42.627Z,99833.59
2023-03-24T00:03:48.804Z,99830.03
2023-03-24T00:05:58.516Z,99835.84
2023-03-24T00:08:02.654Z,99833.09
2023-03-24T00:10:09.900Z,99827.88
2023-03-24T00:12:18.543Z,99822.63
2023-03-24T00:14:22.127Z,99820.00
2023-03-24T00:16:27.116Z,99821.81
2023-03-24T00:18:30.880Z,99807.75
2023-03-24T00:20:35.044Z,99814.66
2023-03-24T00:22:42.319Z,99810.25
2023-03-24T00:24:46.807Z,99799.78
2023-03-24T00:26:51.952Z,99801.44
2023-03-24T00:28:57.200Z,99803.09
2023-03-24T00:31:03.317Z,99794.41
2023-03-24T00:33:08.276Z,99792.63
2023-03-24T00:35:13.979Z,99784.75
2023-03-24T00:37:17.610Z,99783.09
2023-03-24T00:39:22.007Z,99779.66
2023-03-24T00:41:27.346Z,99773.56
2023-03-24T00:43:31.198Z,99773.56
2023-03-24T00:45:34.786Z,99770.97
2023-03-24T00:47:38.616Z,99772.63
2023-03-24T00:49:44.756Z,99766.56
2023-03-24T00:51:48.230Z,99765.72
2023-03-24T00:53:57.872Z,99761.44
2023-03-24T00:56:01.358Z,99749.28
2023-03-24T00:58:05.264Z,99747.63
2023-03-24T01:00:14.384Z,99754.78
2023-03-24T01:02:22.300Z,99741.09
2023-03-24T01:04:26.487Z,99737.91
2023-03-24T01:06:31.521Z,99734.53
2023-03-24T01:08:35.225Z,99737.28
2023-03-24T01:10:50.204Z,99733.13
2023-03-24T01:12:55.033Z,99730.66
2023-03-24T01:14:59.996Z,99724.72
2023-03-24T01:17:03.717Z,99723.16
2023-03-24T01:19:09.293Z,99721.50
2023-03-24T01:21:14.436Z,99707.72
2023-03-24T01:23:23.926Z,99708.66
2023-03-24T01:25:28.102Z,99707.13
2023-03-24T01:27:32.084Z,99696.78
2023-03-24T01:29:35.674Z,99696.06
2023-03-24T01:31:39.352Z,99691.78
2023-03-24T01:33:42.896Z,99684.88
2023-03-24T01:35:46.798Z,99684.19
2023-03-24T01:37:50.433Z,99680.03
2023-03-24T01:39:55.411Z,99679.19
2023-03-24T01:41:59.027Z,99668.00
2023-03-24T01:44:03.112Z,99669.94
2023-03-24T01:46:16.451Z,99664.84
2023-03-24T01:48:26.234Z,99660.69
2023-03-24T01:50:30.112Z,99650.22
2023-03-24T01:52:37.249Z,99644.16
2023-03-24T01:54:44.097Z,99643.31
2023-03-24T01:56:55.667Z,99635.47
2023-03-24T01:59:02.743Z,99631.19
2023-03-24T02:01:30.169Z,99628.56
2023-03-24T02:03:48.140Z,99618.22
2023-03-24T02:05:54.586Z,99616.44
2023-03-24T02:08:06.017Z,99606.94
2023-03-24T02:10:13.494Z,99604.44
2023-03-24T02:12:18.369Z,99608.84
2023-03-24T02:14:22.646Z,99591.47
2023-03-24T02:16:39.180Z,99595.06
2023-03-24T02:18:54.909Z,99588.16
2023-03-24T02:21:33.415Z,99596.97
2023-03-24T02:23:57.215Z,99585.78
2023-03-24T02:26:32.117Z,99572.69
2023-03-24T02:28:44.468Z,99568.31
2023-03-24T02:31:16.181Z,99567.59
2023-03-24T02:33:37.037Z,99560.56
2023-03-24T02:36:26.297Z,99564.16
2023-03-24T02:39:17.342Z,99543.22
2023-03-24T02:41:32.321Z,99551.06
2023-03-24T02:43:48.927Z,99545.84
2023-03-24T02:46:07.016Z,99544.03
2023-03-24T02:48:24.634Z,99544.88
2023-03-24T02:50:33.247Z,99537.97
2023-03-24T02:52:46.215Z,99539.66
2023-03-24T02:54:57.507Z,99522.28
2023-03-24T02:57:06.998Z,99521.34
2023-03-24T02:59:37.580Z,99522.28
2023-03-24T03:01:57.747Z,99511.81
2023-03-24T03:04:12.670Z,99518.84
2023-03-24T03:06:22.141Z,99517.06
2023-03-24T03:08:29.754Z,99505.75
2023-03-24T03:10:38.469Z,99501.34
2023-03-24T03:12:48.099Z,99505.63
2023-03-24T03:14:56.076Z,99487.31
2023-03-24T03:17:04.913Z,99483.75
2023-03-24T03:19:18.144Z,99472.31
2023-03-24T03:21:27.097Z,99459.25
2023-03-24T03:23:35.913Z,99466.97
2023-03-24T03:25:46.434Z,99454.72
2023-03-24T03:27:54.581Z,99449.34
2023-03-24T03:30:03.213Z,99451.00
2023-03-24T03:32:10.823Z,99444.00
2023-03-24T03:34:22.114Z,99439.72
2023-03-24T03:36:30.917Z,99427.34
2023-03-24T03:38:49.183Z,99422.94
2023-03-24T03:40:54.368Z,99417.56
2023-03-24T03:43:01.853Z,99421.84
2023-03-24T03:45:07.091Z,99426.13
2023-03-24T03:47:10.530Z,99421.59
2023-03-24T03:49:19.874Z,99423.25
2023-03-24T03:51:23.586Z,99409.06
2023-03-24T03:53:40.348Z,99408.91
2023-03-24T03:55:45.555Z,99407.00
2023-03-24T03:57:49.772Z,99401.50
2023-03-24T04:00:20.009Z,99401.25
2023-03-24T04:02:52.686Z,99386.94
2023-03-24T04:05:29.326Z,99407.63
2023-03-24T04:08:03.766Z,99387.38
2023-03-24T04:10:47.709Z,99385.44
2023-03-24T04:13:15.190Z,99380.91
2023-03-24T04:15:47.962Z,99384.91
2023-03-24T04:18:31.694Z,99375.13
2023-03-24T04:20:47.557Z,99368.78
2023-03-24T04:23:03.180Z,99358.91
2023-03-24T04:25:16.937Z,99354.38
2023-03-24T04:27:28.938Z,99355.06
2023-03-24T04:29:42.752Z,99356.72
2023-03-24T04:31:53.575Z,99346.94
2023-03-24T04:34:03.703Z,99344.31
2023-03-24T04:36:18.260Z,99345.16
2023-03-24T04:38:42.764Z,99347.63
2023-03-24T04:40:55.647Z,99350.13
2023-03-24T04:43:01.602Z,99348.47
2023-03-24T04:45:08.157Z,99341.44
2023-03-24T04:47:38.644Z,99330.00
2023-03-24T04:50:02.051Z,99330.00
2023-03-24T04:52:06.877Z,99333.59
2023-03-24T04:54:11.423Z,99327.38
2023-03-24T04:56:39.876Z,99328.34
2023-03-24T04:59:07.160Z,99317.88
2023-03-24T05:01:10.891Z,99317.03
2023-03-24T05:03:20.334Z,99311.81
2023-03-24T05:05:23.667Z,99310.00
2023-03-24T05:07:27.294Z,99310.84
2023-03-24T05:09:34.662Z,99308.22
2023-03-24T05:11:38.870Z,99308.22
2023-03-24T05:13:46.940Z,99303.81
2023-03-24T05:15:51.125Z,99305.47
2023-03-24T05:18:08.984Z,99309.06
2023-03-24T05:20:15.230Z,99297.63
2023-03-24T05:22:21.883Z,99307.13
2023-03-24T05:24:25.230Z,99309.75
2023-03-24T05:26:29.975Z,99313.06
2023-03-24T05:28:41.667Z,99301.63
2023-03-24T05:30:45.016Z,99299.66
2023-03-24T05:33:05.744Z,99306.56
2023-03-24T05:35:09.882Z,99302.16
2023-03-24T05:37:16.988Z,99307.09
2023-03-24T05:39:24.583Z,99295.66
2023-03-24T05:41:42.289Z,99292.91
2023-03-24T05:43:45.568Z,99296.38
2023-03-24T05:45:51.467Z,99293.59
2023-03-24T05:48:07.554Z,99293.34
2023-03-24T05:50:29.058Z,99288.94
2023-03-24T05:52:33.787Z,99286.16
2023-03-24T05:54:53.050Z,99280.94
2023-03-24T05:57:00.138Z,99285.06
2023-03-24T05:59:11.862Z,99282.31
2023-03-24T06:01:35.836Z,99282.31
2023-03-24T06:03:52.811Z,99275.13
2023-03-24T06:05:56.117Z,99275.84
2023-03-24T06:08:01.534Z,99270.47
2023-03-24T06:10:10.339Z,99269.63
2023-03-24T06:12:21.956Z,99270.28
2023-03-24T06:14:34.807Z,99268.34
2023-03-24T06:16:44.294Z,99267.38
2023-03-24T06:18:52.547Z,99270.69
2023-03-24T06:21:18.550Z,99261.88
2023-03-24T06:23:25.972Z,99253.88
2023-03-24T06:25:50.844Z,99265.19
2023-03-24T06:28:04.270Z,99279.81
2023-03-24T06:30:11.018Z,99273.47
2023-03-24T06:32:14.273Z,99280.91
2023-03-24T06:34:18.871Z,99273.72
2023-03-24T06:36:35.780Z,99274.41
2023-03-24T06:38:41.980Z,99281.19
2023-03-24T06:40:45.523Z,99279.22
2023-03-24T06:42:49.626Z,99287.75
2023-03-24T06:44:53.216Z,99285.84
2023-03-24T06:46:56.697Z,99271.75
2023-03-24T06:48:59.887Z,99286.38
2023-03-24T06:51:03.221Z,99285.28
2023-03-24T06:53:06.558Z,99294.66
2023-03-24T06:55:13.714Z,99293.56
2023-03-24T06:57:17.975Z,99309.00
2023-03-24T06:59:45.034Z,99318.53
2023-03-24T07:01:49.578Z,99328.31
2023-03-24T07:03:59.291Z,99332.88
2023-03-24T07:06:19.616Z,99366.41
2023-03-24T07:08:37.400Z,99367.53
2023-03-24T07:10:43.414Z,99361.59
2023-03-24T07:12:48.092Z,99366.97
2023-03-24T07:14:52.053Z,99361.84
2023-03-24T07:16:55.294Z,99383.78
2023-03-24T07:19:15.431Z,99385.72
2023-03-24T07:21:22.187Z,99389.19
2023-03-24T07:23:28.042Z,99390.97
2023-03-24T07:25:41.268Z,99404.78
2023-03-24T07:27:57.484Z,99409.06
2023-03-24T07:30:01.398Z,99399.25
2023-03-24T07:32:15.719Z,99405.19
2023-03-24T07:34:19.276Z,99413.06
2023-03-24T07:36:22.606Z,99407.13
2023-03-24T07:38:25.985Z,99416.91
2023-03-24T07:40:35.066Z,99414.44
2023-03-24T07:42:38.648Z,99420.50
2023-03-24T07:45:03.535Z,99427.41
2023-03-24T07:47:06.913Z,99434.56
2023-03-24T07:49:18.862Z,99438.97
2023-03-24T07:51:28.430Z,99440.78
2023-03-24T07:53:50.183Z,99448.66
2023-03-24T07:56:16.113Z,99455.53
2023-03-24T07:58:28.244Z,99457.19
2023-03-24T08:00:51.269Z,99462.56
2023-03-24T08:03:15.547Z,99468.25
2023-03-24T08:05:19.899Z,99468.53
2023-03-24T08:07:43.093Z,99473.78
2023-03-24T08:09:46.422Z,99480.66
2023-03-24T08:11:49.665Z,99461.34
2023-03-24T08:13:52.896Z,99486.59
2023-03-24T08:15:57.553Z,99473.19
2023-03-24T08:18:00.937Z,99487.00
2023-03-24T08:20:13.112Z,99487.69
2023-03-24T08:22:16.385Z,99502.19
2023-03-24T08:24:20.011Z,99542.22
2023-03-24T08:26:27.000Z,99527.88
2023-03-24T08:28:30.312Z,99525.69
2023-03-24T08:30:33.562Z,99545.56
2023-03-24T08:32:38.752Z,99523.75
2023-03-24T08:34:42.006Z,99535.22
2023-03-24T08:36:45.141Z,99539.50
2023-03-24T08:38:48.405Z,99546.41
2023-03-24T08:40:53.217Z,99540.06
2023-03-24T08:42:58.673Z,99547.75
2023-03-24T08:45:01.861Z,99544.47
2023-03-24T08:47:05.251Z,99554.97
2023-03-24T08:49:10.079Z,99554.97
2023-03-24T08:51:14.672Z,99554.97
2023-03-24T08:53:17.988Z,99563.50
2023-03-24T08:55:22.102Z,99566.94
2023-03-24T08:57:25.698Z,99572.75
2023-03-24T08:59:29.430Z,99578.69
2023-03-24T09:01:34.070Z,99581.88
2023-03-24T09:03:39.899Z,99568.34
2023-03-24T09:05:45.084Z,99563.53
2023-03-24T09:07:50.001Z,99575.13
2023-03-24T09:09:53.146Z,99577.19
2023-03-24T09:11:56.305Z,99590.75
2023-03-24T09:13:59.499Z,99585.91
2023-03-24T09:16:04.669Z,99597.53
2023-03-24T09:18:08.286Z,99611.03
2023-03-24T09:20:13.783Z,99610.09
2023-03-24T09:22:18.449Z,99617.97
2023-03-24T09:24:21.795Z,99605.56
2023-03-24T09:26:24.937Z,99607.22
2023-03-24T09:28:28.183Z,99610.81
2023-03-24T09:30:32.670Z,99610.81
2023-03-24T09:32:37.436Z,99624.88
2023-03-24T09:34:40.820Z,99617.97
2023-03-24T09:36:43.996Z,99622.97
2023-03-24T09:38:48.774Z,99629.59
2023-03-24T09:40:56.206Z,99635.56
2023-03-24T09:43:04.326Z,99631.25
2023-03-24T09:45:14.339Z,99635.56
2023-03-24T09:47:26.606Z,99632.66
2023-03-24T09:49:32.637Z,99636.53
2023-03-24T09:51:40.961Z,99654.47
2023-03-24T09:53:51.046Z,99654.47
2023-03-24T09:55:54.309Z,99659.06
2023-03-24T09:58:01.925Z,99647.84
2023-03-24T10:00:18.438Z,99656.16
2023-03-24T10:02:23.589Z,99651.03
2023-03-24T10:04:32.098Z,99649.94
2023-03-24T10:06:40.118Z,99651.19
2023-03-24T10:08:48.090Z,99668.28
2023-03-24T10:11:00.032Z,99656.69
2023-03-24T10:13:08.107Z,99657.50
2023-03-24T10:15:30.898Z,99660.69
2023-03-24T10:17:48.110Z,99665.53
2023-03-24T10:20:00.203Z,99669.41
2023-03-24T10:22:12.926Z,99680.16
2023-03-24T10:24:24.810Z,99664.13
2023-03-24T10:26:41.392Z,99657.63
2023-03-24T10:28:51.148Z,99675.47
2023-03-24T10:30:58.905Z,99669.94
2023-03-24T10:33:02.648Z,99663.44
2023-03-24T10:35:10.055Z,99672.69
2023-03-24T10:37:15.695Z,99673.34
2023-03-24T10:39:22.415Z,99672.53
2023-03-24T10:41:30.690Z,99669.38
2023-03-24T10:43:35.371Z,99660.13
2023-03-24T10:45:42.087Z,99666.34
2023-03-24T10:47:45.975Z,99671.31
2023-03-24T10:49:55.013Z,99663.03
2023-03-24T10:52:03.924Z,99670.44
2023-03-24T10:54:17.036Z,99670.84
2023-03-24T10:56:39.623Z,99682.91
2023-03-24T10:58:45.489Z,99679.16
2023-03-24T11:00:50.263Z,99675.69
2023-03-24T11:02:59.050Z,99691.34
2023-03-24T11:05:05.385Z,99685.94
2023-03-24T11:07:16.533Z,99702.53
2023-03-24T11:09:21.748Z,99701.56
2023-03-24T11:11:31.884Z,99693.00
2023-03-24T11:13:35.897Z,99693.00
2023-03-24T11:15:54.538Z,99711.38
2023-03-24T11:17:59.328Z,99702.41
2023-03-24T11:20:05.949Z,99715.50
2023-03-24T11:22:12.503Z,99720.75
2023-03-24T11:24:18.083Z,99705.50
2023-03-24T11:26:23.834Z,99711.88
2023-03-24T11:28:28.785Z,99715.22
2023-03-24T11:30:36.181Z,99712.19
2023-03-24T11:32:47.461Z,99709.41
2023-03-24T11:34:57.632Z,99716.03
2023-03-24T11:37:03.554Z,99720.25
2023-03-24T11:39:13.035Z,99718.16
2023-03-24T11:41:22.671Z,99714.56
2023-03-24T11:43:27.214Z,99707.25
2023-03-24T11:45:39.192Z,99722.59
2023-03-24T11:47:44.519Z,99706.28
2023-03-24T11:49:52.733Z,99710.03
2023-03-24T11:51:57.137Z,99705.44
2023-03-24T11:54:03.382Z,99707.66
2023-03-24T11:56:14.352Z,99702.06
2023-03-24T11:58:28.088Z,99703.94
2023-03-24T12:00:35.084Z,99698.56
2023-03-24T12:02:53.823Z,99710.91
2023-03-24T12:05:21.789Z,99707.50
2023-03-24T12:08:01.071Z,99704.03
2023-03-24T12:10:19.086Z,99729.38
2023-03-24T12:12:33.597Z,99721.81
2023-03-24T12:14:52.914Z,99722.53
2023-03-24T12:17:06.736Z,99713.38
2023-03-24T12:19:35.649Z,99720.56
2023-03-24T12:21:50.611Z,99718.81
2023-03-24T12:23:59.791Z,99723.28
2023-03-24T12:26:21.449Z,99721.25
2023-03-24T12:28:38.831Z,99730.94
2023-03-24T12:30:48.567Z,99754.69
2023-03-24T12:33:01.382Z,99722.03
2023-03-24T12:35:38.955Z,99726.81
2023-03-24T12:37:50.553Z,99720.69
2023-03-24T12:40:06.470Z,99725.00
2023-03-24T12:42:12.681Z,99726.94
2023-03-24T12:44:45.054Z,99730.56
2023-03-24T12:46:56.650Z,99737.13
2023-03-24T12:49:15.226Z,99739.78
2023-03-24T12:51:31.377Z,99722.97
2023-03-24T12:53:47.155Z,99728.75
2023-03-24T12:55:54.169Z,99726.66
2023-03-24T12:58:02.009Z,99726.16
2023-03-24T13:00:12.670Z,99726.84
2023-03-24T13:02:24.926Z,99728.03
2023-03-24T13:04:33.571Z,99725.44
2023-03-24T13:06:44.885Z,99735.38
2023-03-24T13:09:15.111Z,99739.69
2023-03-24T13:11:32.645Z,99730.94
2023-03-24T13:13:39.474Z,99731.69
2023-03-24T13:15:46.329Z,99722.06
2023-03-24T13:17:54.816Z,99707.56
2023-03-24T13:19:59.269Z,99721.38
2023-03-24T13:22:07.855Z,99727.13
2023-03-24T13:24:15.303Z,99718.63
2023-03-24T13:26:28.016Z,99717.91
2023-03-24T13:28:38.458Z,99716.31
2023-03-24T13:30:43.765Z,99721.91
2023-03-24T13:32:51.650Z,99721.75
2023-03-24T13:34:59.341Z,99735.09
2023-03-24T13:37:06.662Z,99729.44
2023-03-24T13:39:15.287Z,99737.84
2023-03-24T13:41:21.272Z,99723.69
2023-03-24T13:43:30.271Z,99738.19
2023-03-24T13:45:41.885Z,99749.22
2023-03-24T13:47:51.726Z,99739.44
2023-03-24T13:50:00.988Z,99728.13
2023-03-24T13:52:08.522Z,99745.19
2023-03-24T13:54:17.482Z,99730.59
2023-03-24T13:56:27.341Z,99743.56
2023-03-24T13:58:48.626Z,99747.06
2023-03-24T14:01:18.164Z,99719.88
2023-03-24T14:03:33.991Z,99734.47
2023-03-24T14:05:59.429Z,99749.03
2023-03-24T14:08:16.137Z,99721.81
2023-03-24T14:10:38.928Z,99711.91
2023-03-24T14:12:53.997Z,99715.06
2023-03-24T14:15:19.362Z,99715.75
2023-03-24T14:17:23.556Z,99712.22
2023-03-24T14:19:39.199Z,99725.88
2023-03-24T14:21:42.683Z,99734.47
2023-03-24T14:23:49.469Z,99738.47
2023-03-24T14:25:55.742Z,99728.94
2023-03-24T14:28:20.777Z,99705.19
2023-03-24T14:30:28.332Z,99722.56
2023-03-24T14:32:38.089Z,99722.16
2023-03-24T14:34:52.615Z,99739.91
2023-03-24T14:37:01.454Z,99722.75
2023-03-24T14:39:13.260Z,99724.91
2023-03-24T14:41:23.322Z,99737.47
2023-03-24T14:43:28.548Z,99719.13
2023-03-24T14:45:43.557Z,99717.47
2023-03-24T14:47:47.183Z,99737.31
2023-03-24T14:49:53.564Z,99728.88
2023-03-24T14:52:02.203Z,99726.25
2023-03-24T14:54:08.537Z,99728.22
2023-03-24T14:56:18.217Z,99724.25
2023-03-24T14:58:24.869Z,99718.28
2023-03-24T15:00:34.382Z,99713.50
2023-03-24T15:02:41.940Z,99723.44
2023-03-24T15:05:22.574Z,99724.91
2023-03-24T15:07:26.146Z,99720.63
2023-03-24T15:09:29.472Z,99712.69
2023-03-24T15:11:35.894Z,99728.22
2023-03-24T15:13:42.161Z,99712.69
2023-03-24T15:15:48.797Z,99731.19
2023-03-24T15:17:53.264Z,99725.88
2023-03-24T15:19:56.580Z,99731.50
2023-03-24T15:22:02.679Z,99736.28
2023-03-24T15:24:27.763Z,99729.66
2023-03-24T15:26:33.328Z,99732.81
2023-03-24T15:28:36.844Z,99723.25
2023-03-24T15:30:40.193Z,99721.59
2023-03-24T15:32:46.297Z,99722.56
2023-03-24T15:34:52.752Z,99716.13
2023-03-24T15:36:57.432Z,99716.25
2023-03-24T15:39:00.757Z,99709.78
2023-03-24T15:41:06.814Z,99715.16
2023-03-24T15:43:20.375Z,99718.38
2023-03-24T15:45:27.497Z,99710.38
2023-03-24T15:47:33.661Z,99715.94
2023-03-24T15:49:39.751Z,99720.16
2023-03-24T15:51:50.671Z,99714.28
2023-03-24T15:53:59.090Z,99713.38
2023-03-24T15:56:06.703Z,99702.53
2023-03-24T15:58:25.507Z,99695.59
2023-03-24T16:00:32.248Z,99717.38
2023-03-24T16:02:39.183Z,99702.19
2023-03-24T16:04:42.605Z,99697.25
2023-03-24T16:06:52.866Z,99697.22
2023-03-24T16:09:01.302Z,99705.03
2023-03-24T16:11:08.080Z,99698.84
2023-03-24T16:13:19.463Z,99699.91
2023-03-24T16:15:24.331Z,99703.09
2023-03-24T16:17:27.845Z,99709.59
2023-03-24T16:19:31.437Z,99707.16
2023-03-24T16:21:34.596Z,99711.72
2023-03-24T16:23:37.807Z,99706.34
2023-03-24T16:25:41.532Z,99701.81
2023-03-24T16:27:44.695Z,99710.50
2023-03-24T16:29:47.941Z,99712.91
2023-03-24T16:31:54.162Z,99702.44
2023-03-24T16:33:58.243Z,99716.34
2023-03-24T16:36:01.889Z,99711.81
2023-03-24T16:38:05.249Z,99712.56
2023-03-24T16:40:21.289Z,99717.56
2023-03-24T16:42:24.438Z,99706.69
2023-03-24T16:44:27.773Z,99721.09
2023-03-24T16:46:33.802Z,99717.78
2023-03-24T16:48:38.435Z,99716.13
2023-03-24T16:50:43.228Z,99718.06
2023-03-24T16:52:46.440Z,99716.41
2023-03-24T16:54:50.549Z,99727.09
2023-03-24T16:56:53.725Z,99723.91
2023-03-24T16:58:57.338Z,99723.53
2023-03-24T17:01:01.669Z,99717.06
2023-03-24T17:03:06.021Z,99723.72
2023-03-24T17:05:20.720Z,99737.41
2023-03-24T17:07:23.960Z,99731.75
2023-03-24T17:09:28.613Z,99729.69
2023-03-24T17:11:35.041Z,99728.63
2023-03-24T17:13:38.309Z,99731.81
2023-03-24T17:15:41.666Z,99726.28
2023-03-24T17:17:45.617Z,99742.47
2023-03-24T17:19:49.112Z,99733.53
2023-03-24T17:21:59.175Z,99729.50
2023-03-24T17:24:05.229Z,99736.03
2023-03-24T17:26:08.617Z,99746.81
2023-03-24T17:28:15.044Z,99734.91
2023-03-24T17:30:20.868Z,99743.06
2023-03-24T17:32:29.981Z,99747.63
2023-03-24T17:34:33.887Z,99752.38
2023-03-24T17:36:37.592Z,99747.38
2023-03-24T17:38:43.535Z,99746.13
2023-03-24T17:40:47.674Z,99744.06
2023-03-24T17:42:51.806Z,99752.63
2023-03-24T17:44:55.191Z,99759.56
2023-03-24T17:46:58.534Z,99763.69
2023-03-24T17:49:01.699Z,99761.72
2023-03-24T17:51:05.817Z,99771.97
2023-03-24T17:53:19.994Z,99753.44
2023-03-24T17:55:25.090Z,99762.81
2023-03-24T17:57:28.381Z,99760.81
2023-03-24T17:59:31.573Z,99764.13
2023-03-24T18:01:39.393Z,99766.44
2023-03-24T18:03:43.046Z,99769.03
2023-03-24T18:05:46.664Z,99774.81
2023-03-24T18:07:49.926Z,99778.09
2023-03-24T18:09:53.100Z,99783.03
2023-03-24T18:11:58.542Z,99777.59
2023-03-24T18:14:02.130Z,99786.00
2023-03-24T18:16:19.929Z,99790.94
2023-03-24T18:18:24.652Z,99795.84
2023-03-24T18:20:28.095Z,99797.19
2023-03-24T18:22:31.347Z,99807.25
2023-03-24T18:25:03.844Z,99810.25
2023-03-24T18:27:11.728Z,99811.47
2023-03-24T18:29:15.760Z,99818.88
2023-03-24T18:31:21.776Z,99817.44
2023-03-24T18:33:25.469Z,99821.28
2023-03-24T18:35:29.535Z,99817.28
2023-03-24T18:37:33.227Z,99814.91
2023-03-24T18:39:36.793Z,99814.19
2023-03-24T18:41:41.073Z,99815.41
2023-03-24T18:43:47.875Z,99811.13
2023-03-24T18:45:51.719Z,99815.66
2023-03-24T18:47:55.173Z,99815.06
2023-03-24T18:49:58.514Z,99818.63
2023-03-24T18:52:01.754Z,99811.16
2023-03-24T18:54:05.703Z,99817.47
2023-03-24T18:56:09.641Z,99811.66
2023-03-24T18:58:15.275Z,99816.44
2023-03-24T19:00:21.790Z,99812.41
2023-03-24T19:02:25.127Z,99816.22
2023-03-24T19:04:28.404Z,99818.25
2023-03-24T19:06:32.065Z,99822.75
2023-03-24T19:08:37.851Z,99824.75
2023-03-24T19:10:42.898Z,99832.06
2023-03-24T19:12:46.405Z,99828.13
2023-03-24T19:14:49.757Z,99826.72
2023-03-24T19:16:54.347Z,99818.38
2023-03-24T19:18:58.602Z,99812.44
2023-03-24T19:21:02.168Z,99810.06
2023-03-24T19:23:05.732Z,99811.28
2023-03-24T19:25:09.495Z,99808.06
2023-03-24T19:27:12.724Z,99807.47
2023-03-24T19:29:16.381Z,99816.50
2023-03-24T19:31:21.379Z,99811.75
2023-03-24T19:33:26.701Z,99811.16
2023-03-24T19:35:31.434Z,99815.78
2023-03-24T19:37:34.993Z,99814.41
2023-03-24T19:39:39.531Z,99812.00
2023-03-24T19:41:42.922Z,99806.06
2023-03-24T19:43:46.401Z,99808.81
2023-03-24T19:45:51.287Z,99808.09
2023-03-24T19:47:54.699Z,99806.53
2023-03-24T19:49:59.374Z,99806.78
2023-03-24T19:52:03.941Z,99805.09
2023-03-24T19:54:07.210Z,99810.56
2023-03-24T19:56:10.772Z,99807.22
2023-03-24T19:58:14.025Z,99809.13
2023-03-24T20:00:17.648Z,99804.88
2023-03-24T20:02:22.099Z,99810.22
2023-03-24T20:04:25.366Z,99802.50
2023-03-24T20:06:30.298Z,99804.41
2023-03-24T20:08:33.679Z,99813.19
2023-03-24T20:10:38.588Z,99802.03
2023-03-24T20:12:41.876Z,99806.53
2023-03-24T20:14:45.097Z,99810.94
2023-03-24T20:16:48.313Z,99808.44
2023-03-24T20:18:51.546Z,99806.75
2023-03-24T20:20:56.367Z,99803.31
2023-03-24T20:23:00.988Z,99809.50
2023-03-24T20:25:04.914Z,99806.75
2023-03-24T20:27:08.671Z,99798.81
2023-03-24T20:29:12.167Z,99800.47
2023-03-24T20:31:15.469Z,99797.72
2023-03-24T20:33:18.834Z,99797.72
2023-03-24T20:35:22.509Z,99800.34
2023-03-24T20:37:29.251Z,99800.34
2023-03-24T20:39:33.871Z,99802.97
2023-03-24T20:41:37.126Z,99794.41
2023-03-24T20:43:40.303Z,99786.56
2023-03-24T20:45:43.538Z,99795.34
2023-03-24T20:47:47.222Z,99799.03
2023-03-24T20:49:50.579Z,99798.44
2023-03-24T20:51:54.032Z,99797.00
2023-03-24T20:53:57.799Z,99800.66
2023-03-24T20:56:04.376Z,99799.25
2023-03-24T20:58:08.373Z,99789.16
2023-03-24T21:00:14.326Z,99787.72
2023-03-24T21:02:18.985Z,99791.50
2023-03-24T21:04:22.317Z,99782.22
2023-03-24T21:06:25.525Z,99791.34
2023-03-24T21:08:28.979Z,99790.78
2023-03-24T21:10:32.360Z,99790.28
2023-03-24T21:12:52.760Z,99786.22
2023-03-24T21:14:57.627Z,99787.41
2023-03-24T21:17:00.889Z,99784.19
2023-03-24T21:19:04.216Z,99780.84
2023-03-24T21:21:12.334Z,99784.50
2023-03-24T21:23:18.569Z,99781.31
2023-03-24T21:25:22.267Z,99782.38
2023-03-24T21:27:25.490Z,99782.59
2023-03-24T21:29:30.091Z,99791.59
2023-03-24T21:31:33.286Z,99790.16
2023-03-24T21:33:39.980Z,99788.72
2023-03-24T21:35:43.300Z,99779.44
2023-03-24T21:37:47.747Z,99779.66
2023-03-24T21:39:51.389Z,99775.38
2023-03-24T21:41:54.790Z,99770.38
2023-03-24T21:44:00.742Z,99769.66
2023-03-24T21:46:06.734Z,99777.72
2023-03-24T21:48:14.035Z,99771.03
2023-03-24T21:50:23.122Z,99773.75
2023-03-24T21:52:29.510Z,99766.03
2023-03-24T21:54:33.396Z,99766.03
2023-03-24T21:56:37.995Z,99771.38
2023-03-24T21:58:41.611Z,99771.47
2023-03-24T22:00:46.330Z,99777.63
2023-03-24T22:02:52.752Z,99771.69
2023-03-24T22:05:01.526Z,99770.03
2023-03-24T22:07:07.330Z,99770.03
2023-03-24T22:09:11.193Z,99766.47
2023-03-24T22:11:15.436Z,99768.13
2023-03-24T22:13:18.611Z,99761.88
2023-03-24T22:15:22.458Z,99765.19
2023-03-24T22:17:25.816Z,99755.72
2023-03-24T22:19:30.603Z,99758.22
2023-03-24T22:21:33.925Z,99752.25
2023-03-24T22:23:39.712Z,99750.59
2023-03-24T22:25:43.417Z,99760.19
2023-03-24T22:27:50.085Z,99750.59
2023-03-24T22:29:55.405Z,99748.09
2023-03-24T22:31:58.679Z,99742.97
2023-03-24T22:34:01.873Z,99737.03
2023-03-24T22:36:07.640Z,99736.25
2023-03-24T22:38:14.909Z,99730.19
2023-03-24T22:40:18.181Z,99734.69
2023-03-24T22:42:22.140Z,99739.06
2023-03-24T22:44:25.396Z,99752.13
2023-03-24T22:46:28.581Z,99747.00
2023-03-24T22:48:31.959Z,99748.78
2023-03-24T22:50:35.439Z,99747.94
2023-03-24T22:52:40.084Z,99749.63
2023-03-24T22:54:43.313Z,99754.72
2023-03-24T22:56:46.647Z,99744.75
2023-03-24T22:58:49.874Z,99737.44
2023-03-24T23:00:56.805Z,99736.38
2023-03-24T23:03:00.140Z,99740.66
2023-03-24T23:05:03.477Z,99737.31
2023-03-24T23:07:07.693Z,99741.81
2023-03-24T23:09:12.366Z,99744.66
2023-03-24T23:11:15.737Z,99737.75
2023-03-24T23:13:18.940Z,99731.59
2023-03-24T23:15:23.338Z,99728.06
2023-03-24T23:17:26.983Z,99728.06
2023-03-24T23:19:33.226Z,99732.31
2023-03-24T23:21:37.290Z,99749.53
2023-03-24T23:23:42.063Z,99751.09
2023-03-24T23:25:46.797Z,99757.75
2023-03-24T23:27:50.103Z,99747.09
2023-03-24T23:29:53.380Z,99756.59
2023-03-24T23:31:56.664Z,99741.66
2023-03-24T23:34:00.353Z,99740.72
2023-03-24T23:36:04.418Z,99731.94
2023-03-24T23:38:07.791Z,99731.09
2023-03-24T23:40:15.014Z,99725.78
2023-03-24T23:42:19.841Z,99716.28
2023-03-24T23:44:23.110Z,99728.50
2023-03-24T23:46:26.496Z,99719.84
2023-03-24T23:48:32.367Z,99721.63
2023-03-24T23:50:35.624Z,99723.38
2023-03-24T23:52:41.255Z,99723.38
2023-03-24T23:54:44.578Z,99724.44
2023-03-24T23:56:47.794Z,99718.63
2023-03-24T23:58:52.415Z,99711.00
